Terminal Aerodrome Forecast
Issued by NWS

Home | Current Version | Previous Version | Text Only | Print | Product List | Glossary On
Versions: 1 2 3 4 5 6 7 8 9 10 11 12 13
000
FTUS45 KVEF 021700
TAFDAG
TAF
KDAG 021724Z 0218/0318 28009KT P6SM SKC
     FM022000 05007KT P6SM SKC
     FM030000 24010G18KT P6SM SKC
     FM030600 27010KT P6SM SKC=

USA.gov is the U.S. government's official web portal to all federal, state and local government web resources and services.